sensor_id;sensor_type;location;lat;lon;timestamp;pressure;altitude;pressure_sealevel;temperature
43802;BMP280;29429;51.074;13.764;2023-06-22T00:01:26;100265.38;;;21.45
43802;BMP280;29429;51.074;13.764;2023-06-22T00:03:54;100260.75;;;21.40
43802;BMP280;29429;51.074;13.764;2023-06-22T00:06:21;100271.06;;;21.38
43802;BMP280;29429;51.074;13.764;2023-06-22T00:08:49;100267.81;;;21.36
43802;BMP280;29429;51.074;13.764;2023-06-22T00:11:16;100274.28;;;21.30
43802;BMP280;29429;51.074;13.764;2023-06-22T00:13:44;100281.88;;;21.28
43802;BMP280;29429;51.074;13.764;2023-06-22T00:16:11;100279.66;;;21.25
43802;BMP280;29429;51.074;13.764;2023-06-22T00:18:38;100288.06;;;21.23
43802;BMP280;29429;51.074;13.764;2023-06-22T00:21:06;100286.09;;;21.14
43802;BMP280;29429;51.074;13.764;2023-06-22T00:23:34;100283.34;;;21.09
43802;BMP280;29429;51.074;13.764;2023-06-22T00:26:02;100289.78;;;21.03
43802;BMP280;29429;51.074;13.764;2023-06-22T00:28:29;100290.22;;;20.90
43802;BMP280;29429;51.074;13.764;2023-06-22T00:30:57;100292.97;;;20.95
43802;BMP280;29429;51.074;13.764;2023-06-22T00:33:25;100300.91;;;21.01
43802;BMP280;29429;51.074;13.764;2023-06-22T00:35:53;100305.00;;;21.04
43802;BMP280;29429;51.074;13.764;2023-06-22T00:38:21;100299.00;;;21.02
43802;BMP280;29429;51.074;13.764;2023-06-22T00:40:48;100300.34;;;20.99
43802;BMP280;29429;51.074;13.764;2023-06-22T00:43:15;100306.56;;;21.00
43802;BMP280;29429;51.074;13.764;2023-06-22T00:45:43;100301.97;;;21.00
43802;BMP280;29429;51.074;13.764;2023-06-22T00:48:10;100307.13;;;20.97
43802;BMP280;29429;51.074;13.764;2023-06-22T00:50:40;100302.72;;;20.91
43802;BMP280;29429;51.074;13.764;2023-06-22T00:53:09;100302.91;;;20.84
43802;BMP280;29429;51.074;13.764;2023-06-22T00:55:43;100300.44;;;20.78
43802;BMP280;29429;51.074;13.764;2023-06-22T00:58:13;100295.75;;;20.73
43802;BMP280;29429;51.074;13.764;2023-06-22T01:00:41;100294.97;;;20.73
43802;BMP280;29429;51.074;13.764;2023-06-22T01:03:09;100293.31;;;20.72
43802;BMP280;29429;51.074;13.764;2023-06-22T01:05:39;100294.16;;;20.72
43802;BMP280;29429;51.074;13.764;2023-06-22T01:08:20;100291.66;;;20.71
43802;BMP280;29429;51.074;13.764;2023-06-22T01:11:14;100292.22;;;20.68
43802;BMP280;29429;51.074;13.764;2023-06-22T01:16:31;100299.22;;;20.63
43802;BMP280;29429;51.074;13.764;2023-06-22T01:19:07;100286.97;;;20.61
43802;BMP280;29429;51.074;13.764;2023-06-22T01:21:37;100300.81;;;20.59
43802;BMP280;29429;51.074;13.764;2023-06-22T01:24:32;100294.00;;;20.57
43802;BMP280;29429;51.074;13.764;2023-06-22T01:29:41;100284.53;;;20.59
43802;BMP280;29429;51.074;13.764;2023-06-22T01:32:10;100285.59;;;20.58
43802;BMP280;29429;51.074;13.764;2023-06-22T01:34:39;100280.47;;;20.57
43802;BMP280;29429;51.074;13.764;2023-06-22T01:37:08;100285.88;;;20.57
43802;BMP280;29429;51.074;13.764;2023-06-22T01:39:36;100287.19;;;20.54
43802;BMP280;29429;51.074;13.764;2023-06-22T01:42:04;100279.31;;;20.53
43802;BMP280;29429;51.074;13.764;2023-06-22T01:44:32;100284.75;;;20.53
43802;BMP280;29429;51.074;13.764;2023-06-22T01:47:01;100299.34;;;20.52
43802;BMP280;29429;51.074;13.764;2023-06-22T01:49:29;100293.66;;;20.48
43802;BMP280;29429;51.074;13.764;2023-06-22T01:51:57;100292.56;;;20.49
43802;BMP280;29429;51.074;13.764;2023-06-22T01:54:24;100291.44;;;20.45
43802;BMP280;29429;51.074;13.764;2023-06-22T01:56:52;100293.56;;;20.38
43802;BMP280;29429;51.074;13.764;2023-06-22T02:00:03;100291.09;;;20.37
43802;BMP280;29429;51.074;13.764;2023-06-22T02:03:03;100299.16;;;20.32
43802;BMP280;29429;51.074;13.764;2023-06-22T02:05:39;100291.81;;;20.27
43802;BMP280;29429;51.074;13.764;2023-06-22T02:08:22;100286.88;;;20.24
43802;BMP280;29429;51.074;13.764;2023-06-22T02:10:52;100288.19;;;20.22
43802;BMP280;29429;51.074;13.764;2023-06-22T02:13:20;100291.66;;;20.17
43802;BMP280;29429;51.074;13.764;2023-06-22T02:15:48;100286.47;;;20.16
43802;BMP280;29429;51.074;13.764;2023-06-22T02:18:15;100282.16;;;20.15
43802;BMP280;29429;51.074;13.764;2023-06-22T02:20:43;100283.44;;;20.12
43802;BMP280;29429;51.074;13.764;2023-06-22T02:23:10;100280.69;;;20.07
43802;BMP280;29429;51.074;13.764;2023-06-22T02:25:38;100276.03;;;20.02
43802;BMP280;29429;51.074;13.764;2023-06-22T02:28:06;100277.94;;;20.02
43802;BMP280;29429;51.074;13.764;2023-06-22T02:30:34;100280.06;;;20.00
43802;BMP280;29429;51.074;13.764;2023-06-22T02:33:01;100282.53;;;20.01
43802;BMP280;29429;51.074;13.764;2023-06-22T02:35:29;100279.56;;;20.03
43802;BMP280;29429;51.074;13.764;2023-06-22T02:38:03;100286.88;;;20.02
43802;BMP280;29429;51.074;13.764;2023-06-22T02:40:31;100295.84;;;20.03
43802;BMP280;29429;51.074;13.764;2023-06-22T02:42:59;100288.75;;;20.02
43802;BMP280;29429;51.074;13.764;2023-06-22T02:45:29;100292.56;;;20.01
43802;BMP280;29429;51.074;13.764;2023-06-22T02:47:57;100292.78;;;19.99
43802;BMP280;29429;51.074;13.764;2023-06-22T02:50:25;100302.56;;;20.00
43802;BMP280;29429;51.074;13.764;2023-06-22T02:52:53;100306.91;;;20.01
43802;BMP280;29429;51.074;13.764;2023-06-22T02:55:21;100315.03;;;20.01
43802;BMP280;29429;51.074;13.764;2023-06-22T02:57:54;100318.00;;;20.00
43802;BMP280;29429;51.074;13.764;2023-06-22T03:00:22;100305.00;;;20.02
43802;BMP280;29429;51.074;13.764;2023-06-22T03:02:50;100296.31;;;20.00
43802;BMP280;29429;51.074;13.764;2023-06-22T03:05:18;100293.63;;;20.00
43802;BMP280;29429;51.074;13.764;2023-06-22T03:07:47;100289.78;;;19.96
43802;BMP280;29429;51.074;13.764;2023-06-22T03:10:15;100298.97;;;19.95
43802;BMP280;29429;51.074;13.764;2023-06-22T03:12:43;100316.06;;;19.95
43802;BMP280;29429;51.074;13.764;2023-06-22T03:15:12;100303.06;;;19.97
43802;BMP280;29429;51.074;13.764;2023-06-22T03:17:40;100299.59;;;20.02
43802;BMP280;29429;51.074;13.764;2023-06-22T03:20:09;100295.84;;;20.03
43802;BMP280;29429;51.074;13.764;2023-06-22T03:22:39;100293.13;;;20.03
43802;BMP280;29429;51.074;13.764;2023-06-22T03:25:07;100285.00;;;20.03
43802;BMP280;29429;51.074;13.764;2023-06-22T03:27:40;100275.53;;;20.05
43802;BMP280;29429;51.074;13.764;2023-06-22T03:30:09;100263.66;;;20.07
43802;BMP280;29429;51.074;13.764;2023-06-22T03:32:37;100256.59;;;20.05
43802;BMP280;29429;51.074;13.764;2023-06-22T03:35:06;100257.41;;;20.06
43802;BMP280;29429;51.074;13.764;2023-06-22T03:37:36;100260.94;;;20.07
43802;BMP280;29429;51.074;13.764;2023-06-22T03:40:04;100263.13;;;20.10
43802;BMP280;29429;51.074;13.764;2023-06-22T03:42:35;100269.69;;;20.14
43802;BMP280;29429;51.074;13.764;2023-06-22T03:45:03;100265.38;;;20.18
43802;BMP280;29429;51.074;13.764;2023-06-22T03:47:32;100267.34;;;20.22
43802;BMP280;29429;51.074;13.764;2023-06-22T03:50:01;100271.75;;;20.28
43802;BMP280;29429;51.074;13.764;2023-06-22T03:52:30;100277.47;;;20.32
43802;BMP280;29429;51.074;13.764;2023-06-22T03:54:58;100268.56;;;20.36
43802;BMP280;29429;51.074;13.764;2023-06-22T03:57:25;100275.13;;;20.40
43802;BMP280;29429;51.074;13.764;2023-06-22T03:59:55;100269.75;;;20.45
43802;BMP280;29429;51.074;13.764;2023-06-22T04:02:23;100267.38;;;20.49
43802;BMP280;29429;51.074;13.764;2023-06-22T04:04:51;100274.72;;;20.53
43802;BMP280;29429;51.074;13.764;2023-06-22T04:07:18;100272.88;;;20.59
43802;BMP280;29429;51.074;13.764;2023-06-22T04:09:46;100274.31;;;20.67
43802;BMP280;29429;51.074;13.764;2023-06-22T04:12:13;100282.47;;;20.72
43802;BMP280;29429;51.074;13.764;2023-06-22T04:14:41;100284.16;;;20.78
43802;BMP280;29429;51.074;13.764;2023-06-22T04:17:08;100297.75;;;20.83
43802;BMP280;29429;51.074;13.764;2023-06-22T04:19:36;100298.63;;;20.88
43802;BMP280;29429;51.074;13.764;2023-06-22T04:22:03;100296.19;;;20.92
43802;BMP280;29429;51.074;13.764;2023-06-22T04:24:31;100289.75;;;20.98
43802;BMP280;29429;51.074;13.764;2023-06-22T04:26:58;100292.75;;;21.01
43802;BMP280;29429;51.074;13.764;2023-06-22T04:29:30;100290.31;;;21.05
43802;BMP280;29429;51.074;13.764;2023-06-22T04:31:58;100286.88;;;21.09
43802;BMP280;29429;51.074;13.764;2023-06-22T04:34:26;100286.91;;;21.14
43802;BMP280;29429;51.074;13.764;2023-06-22T04:36:54;100291.31;;;21.20
43802;BMP280;29429;51.074;13.764;2023-06-22T04:39:22;100298.16;;;21.28
43802;BMP280;29429;51.074;13.764;2023-06-22T04:41:49;100294.38;;;21.34
43802;BMP280;29429;51.074;13.764;2023-06-22T04:44:18;100307.19;;;21.44
43802;BMP280;29429;51.074;13.764;2023-06-22T04:46:53;100308.59;;;21.51
43802;BMP280;29429;51.074;13.764;2023-06-22T04:49:21;100311.06;;;21.58
43802;BMP280;29429;51.074;13.764;2023-06-22T04:51:49;100320.66;;;21.65
43802;BMP280;29429;51.074;13.764;2023-06-22T04:54:19;100319.03;;;21.74
43802;BMP280;29429;51.074;13.764;2023-06-22T04:56:46;100320.72;;;21.80
43802;BMP280;29429;51.074;13.764;2023-06-22T04:59:15;100325.13;;;21.87
43802;BMP280;29429;51.074;13.764;2023-06-22T05:01:45;100342.53;;;21.96
43802;BMP280;29429;51.074;13.764;2023-06-22T05:04:13;100340.41;;;22.03
43802;BMP280;29429;51.074;13.764;2023-06-22T05:06:41;100342.56;;;22.01
43802;BMP280;29429;51.074;13.764;2023-06-22T05:09:08;100342.56;;;22.01
43802;BMP280;29429;51.074;13.764;2023-06-22T05:11:35;100351.31;;;22.08
43802;BMP280;29429;51.074;13.764;2023-06-22T05:14:03;100355.13;;;22.17
43802;BMP280;29429;51.074;13.764;2023-06-22T05:16:30;100360.91;;;22.30
43802;BMP280;29429;51.074;13.764;2023-06-22T05:18:58;100372.63;;;22.41
43802;BMP280;29429;51.074;13.764;2023-06-22T05:21:26;100372.41;;;22.53
43802;BMP280;29429;51.074;13.764;2023-06-22T05:23:54;100365.91;;;22.64
43802;BMP280;29429;51.074;13.764;2023-06-22T05:26:23;100366.75;;;22.69
43802;BMP280;29429;51.074;13.764;2023-06-22T05:28:51;100359.69;;;22.73
43802;BMP280;29429;51.074;13.764;2023-06-22T05:31:19;100363.50;;;22.82
43802;BMP280;29429;51.074;13.764;2023-06-22T05:33:52;100360.81;;;22.92
43802;BMP280;29429;51.074;13.764;2023-06-22T05:36:20;100357.28;;;23.02
43802;BMP280;29429;51.074;13.764;2023-06-22T05:38:48;100355.66;;;23.11
43802;BMP280;29429;51.074;13.764;2023-06-22T05:41:15;100343.38;;;23.24
43802;BMP280;29429;51.074;13.764;2023-06-22T05:43:43;100328.41;;;23.31
43802;BMP280;29429;51.074;13.764;2023-06-22T05:46:10;100330.88;;;23.38
43802;BMP280;29429;51.074;13.764;2023-06-22T05:48:38;100330.31;;;23.46
43802;BMP280;29429;51.074;13.764;2023-06-22T05:51:05;100337.38;;;23.57
43802;BMP280;29429;51.074;13.764;2023-06-22T05:53:33;100341.19;;;23.66
43802;BMP280;29429;51.074;13.764;2023-06-22T05:56:00;100350.16;;;23.77
43802;BMP280;29429;51.074;13.764;2023-06-22T05:58:27;100334.03;;;23.85
43802;BMP280;29429;51.074;13.764;2023-06-22T06:00:55;100332.38;;;23.94
43802;BMP280;29429;51.074;13.764;2023-06-22T06:03:22;100328.25;;;24.02
43802;BMP280;29429;51.074;13.764;2023-06-22T06:05:50;100314.06;;;24.10
43802;BMP280;29429;51.074;13.764;2023-06-22T06:08:17;100317.84;;;24.19
43802;BMP280;29429;51.074;13.764;2023-06-22T06:10:44;100310.97;;;24.27
43802;BMP280;29429;51.074;13.764;2023-06-22T06:13:12;100311.22;;;24.35
43802;BMP280;29429;51.074;13.764;2023-06-22T06:15:40;100309.81;;;24.43
43802;BMP280;29429;51.074;13.764;2023-06-22T06:18:14;100307.31;;;24.51
43802;BMP280;29429;51.074;13.764;2023-06-22T06:20:42;100301.78;;;24.61
43802;BMP280;29429;51.074;13.764;2023-06-22T06:23:09;100295.72;;;24.69
43802;BMP280;29429;51.074;13.764;2023-06-22T06:25:37;100287.13;;;24.91
43802;BMP280;29429;51.074;13.764;2023-06-22T06:28:07;100269.34;;;25.22
43802;BMP280;29429;51.074;13.764;2023-06-22T06:30:35;100239.06;;;25.42
43802;BMP280;29429;51.074;13.764;2023-06-22T06:33:04;100192.44;;;25.58
43802;BMP280;29429;51.074;13.764;2023-06-22T06:35:36;100189.06;;;25.66
43802;BMP280;29429;51.074;13.764;2023-06-22T06:38:05;100193.81;;;25.79
43802;BMP280;29429;51.074;13.764;2023-06-22T06:40:36;100195.63;;;25.88
43802;BMP280;29429;51.074;13.764;2023-06-22T06:43:03;100211.63;;;25.95
43802;BMP280;29429;51.074;13.764;2023-06-22T06:45:31;100211.22;;;26.07
43802;BMP280;29429;51.074;13.764;2023-06-22T06:48:00;100217.88;;;26.19
43802;BMP280;29429;51.074;13.764;2023-06-22T06:50:28;100207.09;;;26.28
43802;BMP280;29429;51.074;13.764;2023-06-22T06:52:56;100194.16;;;26.33
43802;BMP280;29429;51.074;13.764;2023-06-22T06:55:26;100188.59;;;26.38
43802;BMP280;29429;51.074;13.764;2023-06-22T06:57:54;100189.09;;;26.40
43802;BMP280;29429;51.074;13.764;2023-06-22T07:00:21;100194.38;;;26.37
43802;BMP280;29429;51.074;13.764;2023-06-22T07:02:49;100201.69;;;26.41
43802;BMP280;29429;51.074;13.764;2023-06-22T07:05:17;100202.94;;;26.49
43802;BMP280;29429;51.074;13.764;2023-06-22T07:07:44;100205.28;;;26.55
43802;BMP280;29429;51.074;13.764;2023-06-22T07:10:18;100210.69;;;26.60
43802;BMP280;29429;51.074;13.764;2023-06-22T07:12:48;100209.78;;;26.65
43802;BMP280;29429;51.074;13.764;2023-06-22T07:15:19;100213.25;;;26.71
43802;BMP280;29429;51.074;13.764;2023-06-22T07:17:46;100214.56;;;26.73
43802;BMP280;29429;51.074;13.764;2023-06-22T07:20:14;100209.84;;;26.79
43802;BMP280;29429;51.074;13.764;2023-06-22T07:22:43;100206.72;;;26.85
43802;BMP280;29429;51.074;13.764;2023-06-22T07:25:12;100202.06;;;26.86
43802;BMP280;29429;51.074;13.764;2023-06-22T07:27:55;100207.94;;;26.93
43802;BMP280;29429;51.074;13.764;2023-06-22T07:30:23;100197.81;;;27.07
43802;BMP280;29429;51.074;13.764;2023-06-22T07:32:51;100202.91;;;27.27
43802;BMP280;29429;51.074;13.764;2023-06-22T07:35:19;100210.44;;;27.49
43802;BMP280;29429;51.074;13.764;2023-06-22T07:37:46;100194.91;;;27.71
43802;BMP280;29429;51.074;13.764;2023-06-22T07:40:13;100189.16;;;27.95
43802;BMP280;29429;51.074;13.764;2023-06-22T07:42:41;100193.91;;;28.17
43802;BMP280;29429;51.074;13.764;2023-06-22T07:45:09;100198.22;;;28.31
43802;BMP280;29429;51.074;13.764;2023-06-22T07:47:36;100187.19;;;28.45
43802;BMP280;29429;51.074;13.764;2023-06-22T07:50:04;100193.84;;;28.53
43802;BMP280;29429;51.074;13.764;2023-06-22T07:52:32;100194.88;;;28.57
43802;BMP280;29429;51.074;13.764;2023-06-22T07:55:00;100198.91;;;28.59
43802;BMP280;29429;51.074;13.764;2023-06-22T07:57:27;100196.19;;;28.59
43802;BMP280;29429;51.074;13.764;2023-06-22T08:00:05;100199.84;;;28.55
43802;BMP280;29429;51.074;13.764;2023-06-22T08:02:44;100195.78;;;28.52
43802;BMP280;29429;51.074;13.764;2023-06-22T08:05:14;100192.13;;;28.57
43802;BMP280;29429;51.074;13.764;2023-06-22T08:08:02;100190.69;;;28.59
43802;BMP280;29429;51.074;13.764;2023-06-22T08:10:29;100192.50;;;28.64
43802;BMP280;29429;51.074;13.764;2023-06-22T08:12:57;100189.81;;;28.72
43802;BMP280;29429;51.074;13.764;2023-06-22T08:15:27;100187.91;;;28.81
43802;BMP280;29429;51.074;13.764;2023-06-22T08:17:55;100186.53;;;28.92
43802;BMP280;29429;51.074;13.764;2023-06-22T08:20:23;100185.63;;;29.06
43802;BMP280;29429;51.074;13.764;2023-06-22T08:22:50;100176.59;;;29.14
43802;BMP280;29429;51.074;13.764;2023-06-22T08:25:18;100166.81;;;29.21
43802;BMP280;29429;51.074;13.764;2023-06-22T08:27:48;100168.47;;;29.31
43802;BMP280;29429;51.074;13.764;2023-06-22T08:30:16;100157.81;;;29.38
43802;BMP280;29429;51.074;13.764;2023-06-22T08:32:45;100166.88;;;29.47
43802;BMP280;29429;51.074;13.764;2023-06-22T08:35:13;100166.41;;;29.53
43802;BMP280;29429;51.074;13.764;2023-06-22T08:37:41;100166.75;;;29.52
43802;BMP280;29429;51.074;13.764;2023-06-22T08:40:09;100163.69;;;29.62
43802;BMP280;29429;51.074;13.764;2023-06-22T08:42:40;100158.03;;;29.67
43802;BMP280;29429;51.074;13.764;2023-06-22T08:45:09;100161.28;;;29.78
43802;BMP280;29429;51.074;13.764;2023-06-22T08:47:37;100155.31;;;29.84
43802;BMP280;29429;51.074;13.764;2023-06-22T08:50:05;100149.53;;;29.94
43802;BMP280;29429;51.074;13.764;2023-06-22T08:52:33;100140.44;;;30.02
43802;BMP280;29429;51.074;13.764;2023-06-22T08:55:01;100154.06;;;30.07
43802;BMP280;29429;51.074;13.764;2023-06-22T08:57:29;100148.03;;;30.14
43802;BMP280;29429;51.074;13.764;2023-06-22T08:59:57;100144.66;;;30.26
43802;BMP280;29429;51.074;13.764;2023-06-22T09:02:27;100153.69;;;30.35
43802;BMP280;29429;51.074;13.764;2023-06-22T09:04:58;100146.09;;;30.40
43802;BMP280;29429;51.074;13.764;2023-06-22T09:07:26;100146.25;;;30.44
43802;BMP280;29429;51.074;13.764;2023-06-22T09:09:55;100139.47;;;30.50
43802;BMP280;29429;51.074;13.764;2023-06-22T09:12:22;100131.16;;;30.58
43802;BMP280;29429;51.074;13.764;2023-06-22T09:14:53;100135.34;;;30.64
43802;BMP280;29429;51.074;13.764;2023-06-22T09:17:21;100131.09;;;30.75
43802;BMP280;29429;51.074;13.764;2023-06-22T09:19:49;100124.94;;;30.79
43802;BMP280;29429;51.074;13.764;2023-06-22T09:22:16;100118.91;;;30.85
43802;BMP280;29429;51.074;13.764;2023-06-22T09:24:44;100132.69;;;30.94
43802;BMP280;29429;51.074;13.764;2023-06-22T09:27:11;100126.81;;;31.04
43802;BMP280;29429;51.074;13.764;2023-06-22T09:29:39;100121.25;;;31.12
43802;BMP280;29429;51.074;13.764;2023-06-22T09:32:07;100116.84;;;31.20
43802;BMP280;29429;51.074;13.764;2023-06-22T09:34:34;100124.41;;;31.31
43802;BMP280;29429;51.074;13.764;2023-06-22T09:37:02;100114.25;;;31.44
43802;BMP280;29429;51.074;13.764;2023-06-22T09:39:30;100115.63;;;31.59
43802;BMP280;29429;51.074;13.764;2023-06-22T09:41:59;100107.44;;;31.71
43802;BMP280;29429;51.074;13.764;2023-06-22T09:44:27;100103.81;;;31.79
43802;BMP280;29429;51.074;13.764;2023-06-22T09:46:54;100105.03;;;31.90
43802;BMP280;29429;51.074;13.764;2023-06-22T09:49:22;100108.09;;;32.09
43802;BMP280;29429;51.074;13.764;2023-06-22T09:52:08;100109.09;;;32.25
43802;BMP280;29429;51.074;13.764;2023-06-22T09:54:35;100098.56;;;32.39
43802;BMP280;29429;51.074;13.764;2023-06-22T09:57:03;100095.34;;;32.49
43802;BMP280;29429;51.074;13.764;2023-06-22T09:59:30;100091.84;;;32.61
43802;BMP280;29429;51.074;13.764;2023-06-22T10:01:58;100103.16;;;32.80
43802;BMP280;29429;51.074;13.764;2023-06-22T10:04:25;100101.66;;;32.95
43802;BMP280;29429;51.074;13.764;2023-06-22T10:06:54;100101.78;;;32.98
43802;BMP280;29429;51.074;13.764;2023-06-22T10:09:21;100100.28;;;33.01
43802;BMP280;29429;51.074;13.764;2023-06-22T10:11:49;100092.91;;;32.93
43802;BMP280;29429;51.074;13.764;2023-06-22T10:14:16;100092.88;;;32.81
43802;BMP280;29429;51.074;13.764;2023-06-22T10:16:44;100086.31;;;32.73
43802;BMP280;29429;51.074;13.764;2023-06-22T10:19:12;100089.88;;;32.74
43802;BMP280;29429;51.074;13.764;2023-06-22T10:21:39;100096.22;;;32.74
43802;BMP280;29429;51.074;13.764;2023-06-22T10:24:07;100093.69;;;32.69
43802;BMP280;29429;51.074;13.764;2023-06-22T10:26:34;100097.59;;;32.56
43802;BMP280;29429;51.074;13.764;2023-06-22T10:29:02;100085.66;;;32.43
43802;BMP280;29429;51.074;13.764;2023-06-22T10:31:33;100084.41;;;32.08
43802;BMP280;29429;51.074;13.764;2023-06-22T10:34:01;100074.38;;;31.83
43802;BMP280;29429;51.074;13.764;2023-06-22T10:36:28;100078.22;;;31.70
43802;BMP280;29429;51.074;13.764;2023-06-22T10:38:56;100076.63;;;31.69
43802;BMP280;29429;51.074;13.764;2023-06-22T10:41:26;100070.94;;;31.86
43802;BMP280;29429;51.074;13.764;2023-06-22T10:43:57;100064.41;;;32.11
43802;BMP280;29429;51.074;13.764;2023-06-22T10:46:25;100065.94;;;32.33
43802;BMP280;29429;51.074;13.764;2023-06-22T10:48:53;100058.50;;;32.45
43802;BMP280;29429;51.074;13.764;2023-06-22T10:51:26;100056.00;;;32.53
43802;BMP280;29429;51.074;13.764;2023-06-22T10:53:55;100055.69;;;32.66
43802;BMP280;29429;51.074;13.764;2023-06-22T10:56:23;100057.66;;;32.78
43802;BMP280;29429;51.074;13.764;2023-06-22T10:58:50;100055.56;;;32.87
43802;BMP280;29429;51.074;13.764;2023-06-22T11:01:18;100063.63;;;32.92
43802;BMP280;29429;51.074;13.764;2023-06-22T11:04:01;100051.78;;;33.03
43802;BMP280;29429;51.074;13.764;2023-06-22T11:06:29;100048.88;;;33.24
43802;BMP280;29429;51.074;13.764;2023-06-22T11:08:56;100043.31;;;33.36
43802;BMP280;29429;51.074;13.764;2023-06-22T11:11:43;100046.44;;;33.35
43802;BMP280;29429;51.074;13.764;2023-06-22T11:14:11;100052.09;;;33.38
43802;BMP280;29429;51.074;13.764;2023-06-22T11:16:38;100045.63;;;33.46
43802;BMP280;29429;51.074;13.764;2023-06-22T11:19:06;100042.22;;;33.25
43802;BMP280;29429;51.074;13.764;2023-06-22T11:21:34;100045.19;;;33.32
43802;BMP280;29429;51.074;13.764;2023-06-22T11:24:02;100044.44;;;33.47
43802;BMP280;29429;51.074;13.764;2023-06-22T11:26:30;100042.59;;;33.63
43802;BMP280;29429;51.074;13.764;2023-06-22T11:28:59;100027.34;;;33.69
43802;BMP280;29429;51.074;13.764;2023-06-22T11:31:26;100019.28;;;33.64
43802;BMP280;29429;51.074;13.764;2023-06-22T11:33:54;100016.38;;;33.73
43802;BMP280;29429;51.074;13.764;2023-06-22T11:36:22;100015.31;;;33.78
43802;BMP280;29429;51.074;13.764;2023-06-22T11:38:49;100008.66;;;33.66
43802;BMP280;29429;51.074;13.764;2023-06-22T11:41:17;100008.47;;;33.47
43802;BMP280;29429;51.074;13.764;2023-06-22T11:43:45;100012.19;;;33.39
43802;BMP280;29429;51.074;13.764;2023-06-22T11:46:12;100011.28;;;33.35
43802;BMP280;29429;51.074;13.764;2023-06-22T11:48:40;100005.44;;;33.25
43802;BMP280;29429;51.074;13.764;2023-06-22T11:51:07;100011.06;;;33.28
43802;BMP280;29429;51.074;13.764;2023-06-22T11:53:35;100006.19;;;33.37
43802;BMP280;29429;51.074;13.764;2023-06-22T11:56:03;100002.22;;;33.50
43802;BMP280;29429;51.074;13.764;2023-06-22T11:58:30;99997.63;;;33.54
43802;BMP280;29429;51.074;13.764;2023-06-22T12:00:58;99995.09;;;33.49
43802;BMP280;29429;51.074;13.764;2023-06-22T12:03:25;99999.72;;;33.45
43802;BMP280;29429;51.074;13.764;2023-06-22T12:05:53;99990.16;;;33.43
43802;BMP280;29429;51.074;13.764;2023-06-22T12:08:21;99986.84;;;33.37
43802;BMP280;29429;51.074;13.764;2023-06-22T12:10:50;99980.19;;;33.26
43802;BMP280;29429;51.074;13.764;2023-06-22T12:13:17;99975.34;;;33.23
43802;BMP280;29429;51.074;13.764;2023-06-22T12:15:45;99976.97;;;33.24
43802;BMP280;29429;51.074;13.764;2023-06-22T12:18:12;99972.81;;;33.18
43802;BMP280;29429;51.074;13.764;2023-06-22T12:20:42;99978.16;;;33.11
43802;BMP280;29429;51.074;13.764;2023-06-22T12:23:10;99977.09;;;33.03
43802;BMP280;29429;51.074;13.764;2023-06-22T12:25:37;99973.75;;;32.98
43802;BMP280;29429;51.074;13.764;2023-06-22T12:28:05;99974.13;;;33.08
43802;BMP280;29429;51.074;13.764;2023-06-22T12:30:35;99971.09;;;33.14
43802;BMP280;29429;51.074;13.764;2023-06-22T12:33:03;99955.91;;;33.07
43802;BMP280;29429;51.074;13.764;2023-06-22T12:35:30;99962.25;;;32.96
43802;BMP280;29429;51.074;13.764;2023-06-22T12:37:58;99964.09;;;32.92
43802;BMP280;29429;51.074;13.764;2023-06-22T12:40:26;99954.22;;;32.91
43802;BMP280;29429;51.074;13.764;2023-06-22T12:42:53;99950.75;;;32.82
43802;BMP280;29429;51.074;13.764;2023-06-22T12:45:21;99947.78;;;32.75
43802;BMP280;29429;51.074;13.764;2023-06-22T12:47:48;99941.78;;;32.61
43802;BMP280;29429;51.074;13.764;2023-06-22T12:50:17;99933.81;;;32.47
43802;BMP280;29429;51.074;13.764;2023-06-22T12:52:44;99937.84;;;32.49
43802;BMP280;29429;51.074;13.764;2023-06-22T12:55:12;99937.28;;;32.68
43802;BMP280;29429;51.074;13.764;2023-06-22T12:57:39;99932.53;;;32.93
43802;BMP280;29429;51.074;13.764;2023-06-22T13:00:07;99933.91;;;33.11
43802;BMP280;29429;51.074;13.764;2023-06-22T13:02:37;99926.72;;;33.22
43802;BMP280;29429;51.074;13.764;2023-06-22T13:05:05;99920.75;;;33.20
43802;BMP280;29429;51.074;13.764;2023-06-22T13:07:32;99926.97;;;33.17
43802;BMP280;29429;51.074;13.764;2023-06-22T13:10:00;99918.69;;;33.05
43802;BMP280;29429;51.074;13.764;2023-06-22T13:12:28;99922.59;;;33.16
43802;BMP280;29429;51.074;13.764;2023-06-22T13:14:56;99910.19;;;33.26
43802;BMP280;29429;51.074;13.764;2023-06-22T13:17:23;99917.91;;;33.32
43802;BMP280;29429;51.074;13.764;2023-06-22T13:19:50;99915.69;;;33.38
43802;BMP280;29429;51.074;13.764;2023-06-22T13:22:30;99912.31;;;33.44
43802;BMP280;29429;51.074;13.764;2023-06-22T13:24:59;99916.03;;;33.36
43802;BMP280;29429;51.074;13.764;2023-06-22T13:27:27;99910.47;;;33.21
43802;BMP280;29429;51.074;13.764;2023-06-22T13:29:54;99905.78;;;33.09
43802;BMP280;29429;51.074;13.764;2023-06-22T13:32:22;99900.47;;;33.04
43802;BMP280;29429;51.074;13.764;2023-06-22T13:34:51;99901.78;;;33.06
43802;BMP280;29429;51.074;13.764;2023-06-22T13:37:18;99905.44;;;33.10
43802;BMP280;29429;51.074;13.764;2023-06-22T13:39:46;99898.06;;;33.02
43802;BMP280;29429;51.074;13.764;2023-06-22T13:42:14;99890.13;;;33.01
43802;BMP280;29429;51.074;13.764;2023-06-22T13:44:41;99890.38;;;32.96
43802;BMP280;29429;51.074;13.764;2023-06-22T13:47:09;99878.06;;;32.93
43802;BMP280;29429;51.074;13.764;2023-06-22T13:49:36;99865.50;;;32.84
43802;BMP280;29429;51.074;13.764;2023-06-22T13:52:04;99858.81;;;32.85
43802;BMP280;29429;51.074;13.764;2023-06-22T13:54:34;99849.38;;;32.86
43802;BMP280;29429;51.074;13.764;2023-06-22T13:57:03;99851.44;;;32.89
43802;BMP280;29429;51.074;13.764;2023-06-22T13:59:30;99850.03;;;32.95
43802;BMP280;29429;51.074;13.764;2023-06-22T14:01:58;99846.56;;;32.98